sensor_id;sensor_type;location;lat;lon;timestamp;temperature;humidity
4759;DHT22;2393;50.560;12.636;2023-12-04T00:02:02;-7.10;99.90
4759;DHT22;2393;50.560;12.636;2023-12-04T00:04:30;-7.20;99.90
4759;DHT22;2393;50.560;12.636;2023-12-04T00:07:00;-7.30;99.90
4759;DHT22;2393;50.560;12.636;2023-12-04T00:09:28;-7.30;99.90
4759;DHT22;2393;50.560;12.636;2023-12-04T00:11:57;-7.30;99.90
4759;DHT22;2393;50.560;12.636;2023-12-04T00:14:25;-7.30;99.90
4759;DHT22;2393;50.560;12.636;2023-12-04T00:16:54;-7.30;99.90
4759;DHT22;2393;50.560;12.636;2023-12-04T00:19:22;-7.40;99.90
4759;DHT22;2393;50.560;12.636;2023-12-04T00:21:51;-7.40;99.90
4759;DHT22;2393;50.560;12.636;2023-12-04T00:24:20;-7.40;99.90
4759;DHT22;2393;50.560;12.636;2023-12-04T00:26:48;-7.40;99.90
4759;DHT22;2393;50.560;12.636;2023-12-04T00:29:16;-7.40;99.90
4759;DHT22;2393;50.560;12.636;2023-12-04T00:31:44;-7.40;99.90
4759;DHT22;2393;50.560;12.636;2023-12-04T00:34:12;-7.40;99.90
4759;DHT22;2393;50.560;12.636;2023-12-04T00:36:40;-7.40;99.90
4759;DHT22;2393;50.560;12.636;2023-12-04T00:39:08;-7.40;99.90
4759;DHT22;2393;50.560;12.636;2023-12-04T00:41:38;-7.40;99.90
4759;DHT22;2393;50.560;12.636;2023-12-04T00:44:06;-7.40;99.90
4759;DHT22;2393;50.560;12.636;2023-12-04T00:46:35;-7.40;99.90
4759;DHT22;2393;50.560;12.636;2023-12-04T00:49:03;-7.40;99.90
4759;DHT22;2393;50.560;12.636;2023-12-04T00:51:37;-7.40;99.90
4759;DHT22;2393;50.560;12.636;2023-12-04T00:54:06;-7.40;99.90
4759;DHT22;2393;50.560;12.636;2023-12-04T00:56:34;-7.50;99.90
4759;DHT22;2393;50.560;12.636;2023-12-04T00:59:03;-7.50;99.90
4759;DHT22;2393;50.560;12.636;2023-12-04T01:01:33;-7.50;99.90
4759;DHT22;2393;50.560;12.636;2023-12-04T01:04:02;-7.60;99.90
4759;DHT22;2393;50.560;12.636;2023-12-04T01:06:30;-7.60;99.90
4759;DHT22;2393;50.560;12.636;2023-12-04T01:08:58;-7.60;99.90
4759;DHT22;2393;50.560;12.636;2023-12-04T01:11:26;-7.60;99.90
4759;DHT22;2393;50.560;12.636;2023-12-04T01:13:54;-7.50;99.90
4759;DHT22;2393;50.560;12.636;2023-12-04T01:16:24;-7.60;99.90
4759;DHT22;2393;50.560;12.636;2023-12-04T01:18:52;-7.50;99.90
4759;DHT22;2393;50.560;12.636;2023-12-04T01:21:22;-7.50;99.90
4759;DHT22;2393;50.560;12.636;2023-12-04T01:23:50;-7.50;99.90
4759;DHT22;2393;50.560;12.636;2023-12-04T01:26:18;-7.50;99.90
4759;DHT22;2393;50.560;12.636;2023-12-04T01:28:46;-7.50;99.90
4759;DHT22;2393;50.560;12.636;2023-12-04T01:31:15;-7.50;99.90
4759;DHT22;2393;50.560;12.636;2023-12-04T01:33:45;-7.50;99.90
4759;DHT22;2393;50.560;12.636;2023-12-04T01:36:13;-7.50;99.90
4759;DHT22;2393;50.560;12.636;2023-12-04T01:38:41;-7.50;99.90
4759;DHT22;2393;50.560;12.636;2023-12-04T01:41:09;-7.50;99.90
4759;DHT22;2393;50.560;12.636;2023-12-04T01:43:37;-7.50;99.90
4759;DHT22;2393;50.560;12.636;2023-12-04T01:46:06;-7.50;99.90
4759;DHT22;2393;50.560;12.636;2023-12-04T01:48:36;-7.50;99.90
4759;DHT22;2393;50.560;12.636;2023-12-04T01:51:08;-7.50;99.90
4759;DHT22;2393;50.560;12.636;2023-12-04T01:53:38;-7.50;99.90
4759;DHT22;2393;50.560;12.636;2023-12-04T01:56:09;-7.50;99.90
4759;DHT22;2393;50.560;12.636;2023-12-04T01:58:37;-7.50;99.90
4759;DHT22;2393;50.560;12.636;2023-12-04T02:01:06;-7.60;99.90
4759;DHT22;2393;50.560;12.636;2023-12-04T02:03:35;-7.60;99.90
4759;DHT22;2393;50.560;12.636;2023-12-04T02:06:29;-7.70;99.90
4759;DHT22;2393;50.560;12.636;2023-12-04T02:08:58;-7.70;99.90
4759;DHT22;2393;50.560;12.636;2023-12-04T02:11:27;-7.70;99.90
4759;DHT22;2393;50.560;12.636;2023-12-04T02:13:56;-7.70;99.90
4759;DHT22;2393;50.560;12.636;2023-12-04T02:16:26;-7.70;99.90
4759;DHT22;2393;50.560;12.636;2023-12-04T02:18:57;-7.70;99.90
4759;DHT22;2393;50.560;12.636;2023-12-04T02:21:25;-7.70;99.90
4759;DHT22;2393;50.560;12.636;2023-12-04T02:23:56;-7.70;99.90
4759;DHT22;2393;50.560;12.636;2023-12-04T02:26:27;-7.70;99.90
4759;DHT22;2393;50.560;12.636;2023-12-04T02:28:58;-7.70;99.90
4759;DHT22;2393;50.560;12.636;2023-12-04T02:31:29;-7.60;99.90
4759;DHT22;2393;50.560;12.636;2023-12-04T02:33:59;-7.60;99.90
4759;DHT22;2393;50.560;12.636;2023-12-04T02:36:29;-7.60;99.90
4759;DHT22;2393;50.560;12.636;2023-12-04T02:39:00;-7.60;99.90
4759;DHT22;2393;50.560;12.636;2023-12-04T02:41:28;-7.50;99.90
4759;DHT22;2393;50.560;12.636;2023-12-04T02:43:56;-7.50;99.90
4759;DHT22;2393;50.560;12.636;2023-12-04T02:46:25;-7.50;99.90
4759;DHT22;2393;50.560;12.636;2023-12-04T02:48:54;-7.50;99.90
4759;DHT22;2393;50.560;12.636;2023-12-04T02:51:23;-7.60;99.90
4759;DHT22;2393;50.560;12.636;2023-12-04T02:53:53;-7.50;99.90
4759;DHT22;2393;50.560;12.636;2023-12-04T02:56:22;-7.60;99.90
4759;DHT22;2393;50.560;12.636;2023-12-04T02:58:51;-7.60;99.90
4759;DHT22;2393;50.560;12.636;2023-12-04T03:01:19;-7.70;99.90
4759;DHT22;2393;50.560;12.636;2023-12-04T03:03:47;-7.70;99.90
4759;DHT22;2393;50.560;12.636;2023-12-04T03:06:15;-7.80;99.90
4759;DHT22;2393;50.560;12.636;2023-12-04T03:08:43;-7.90;99.90
4759;DHT22;2393;50.560;12.636;2023-12-04T03:11:11;-8.00;99.90
4759;DHT22;2393;50.560;12.636;2023-12-04T03:13:41;-8.00;99.90
4759;DHT22;2393;50.560;12.636;2023-12-04T03:16:15;-8.10;99.90
4759;DHT22;2393;50.560;12.636;2023-12-04T03:18:43;-8.20;99.90
4759;DHT22;2393;50.560;12.636;2023-12-04T03:21:12;-8.20;99.90
4759;DHT22;2393;50.560;12.636;2023-12-04T03:23:40;-8.20;99.90
4759;DHT22;2393;50.560;12.636;2023-12-04T03:26:09;-8.20;99.90
4759;DHT22;2393;50.560;12.636;2023-12-04T03:28:38;-8.20;99.90
4759;DHT22;2393;50.560;12.636;2023-12-04T03:31:08;-8.30;99.90
4759;DHT22;2393;50.560;12.636;2023-12-04T03:33:37;-8.30;99.90
4759;DHT22;2393;50.560;12.636;2023-12-04T03:36:06;-8.30;99.90
4759;DHT22;2393;50.560;12.636;2023-12-04T03:38:36;-8.40;99.90
4759;DHT22;2393;50.560;12.636;2023-12-04T03:41:04;-8.40;99.90
4759;DHT22;2393;50.560;12.636;2023-12-04T03:43:34;-8.40;99.90
4759;DHT22;2393;50.560;12.636;2023-12-04T03:46:02;-8.40;99.90
4759;DHT22;2393;50.560;12.636;2023-12-04T03:48:32;-8.30;99.90
4759;DHT22;2393;50.560;12.636;2023-12-04T03:51:00;-8.30;99.90
4759;DHT22;2393;50.560;12.636;2023-12-04T03:53:28;-8.30;99.90
4759;DHT22;2393;50.560;12.636;2023-12-04T03:55:58;-8.20;99.90
4759;DHT22;2393;50.560;12.636;2023-12-04T03:58:26;-8.20;99.90
4759;DHT22;2393;50.560;12.636;2023-12-04T04:00:54;-8.20;99.90
4759;DHT22;2393;50.560;12.636;2023-12-04T04:03:22;-8.20;99.90
4759;DHT22;2393;50.560;12.636;2023-12-04T04:05:52;-8.10;99.90
4759;DHT22;2393;50.560;12.636;2023-12-04T04:08:20;-8.10;99.90
4759;DHT22;2393;50.560;12.636;2023-12-04T04:10:48;-8.00;99.90
4759;DHT22;2393;50.560;12.636;2023-12-04T04:13:16;-7.90;99.90
4759;DHT22;2393;50.560;12.636;2023-12-04T04:15:45;-7.70;99.90
4759;DHT22;2393;50.560;12.636;2023-12-04T04:18:14;-7.60;99.90
4759;DHT22;2393;50.560;12.636;2023-12-04T04:20:42;-7.40;99.90
4759;DHT22;2393;50.560;12.636;2023-12-04T04:23:11;-7.20;99.90
4759;DHT22;2393;50.560;12.636;2023-12-04T04:25:40;-6.90;99.90
4759;DHT22;2393;50.560;12.636;2023-12-04T04:28:08;-6.70;99.90
4759;DHT22;2393;50.560;12.636;2023-12-04T04:30:36;-6.40;99.90
4759;DHT22;2393;50.560;12.636;2023-12-04T04:33:05;-6.00;99.90
4759;DHT22;2393;50.560;12.636;2023-12-04T04:35:35;-5.70;99.90
4759;DHT22;2393;50.560;12.636;2023-12-04T04:38:04;-5.50;99.90
4759;DHT22;2393;50.560;12.636;2023-12-04T04:40:33;-5.20;99.90
4759;DHT22;2393;50.560;12.636;2023-12-04T04:43:01;-4.80;99.90
4759;DHT22;2393;50.560;12.636;2023-12-04T04:45:29;-4.50;99.90
4759;DHT22;2393;50.560;12.636;2023-12-04T04:47:57;-4.20;99.90
4759;DHT22;2393;50.560;12.636;2023-12-04T04:50:51;-4.00;99.90
4759;DHT22;2393;50.560;12.636;2023-12-04T04:53:19;-3.70;99.90
4759;DHT22;2393;50.560;12.636;2023-12-04T04:55:49;-3.60;99.90
4759;DHT22;2393;50.560;12.636;2023-12-04T04:58:17;-3.50;99.90
4759;DHT22;2393;50.560;12.636;2023-12-04T05:00:46;-3.40;99.90
4759;DHT22;2393;50.560;12.636;2023-12-04T05:03:14;-3.40;99.90
4759;DHT22;2393;50.560;12.636;2023-12-04T05:05:43;-3.30;99.90
4759;DHT22;2393;50.560;12.636;2023-12-04T05:08:13;-3.30;99.90
4759;DHT22;2393;50.560;12.636;2023-12-04T05:10:42;-3.20;99.90
4759;DHT22;2393;50.560;12.636;2023-12-04T05:13:11;-3.30;99.90
4759;DHT22;2393;50.560;12.636;2023-12-04T05:15:40;-3.30;99.90
4759;DHT22;2393;50.560;12.636;2023-12-04T05:18:08;-3.30;99.90
4759;DHT22;2393;50.560;12.636;2023-12-04T05:20:36;-3.20;99.90
4759;DHT22;2393;50.560;12.636;2023-12-04T05:23:04;-3.10;99.90
4759;DHT22;2393;50.560;12.636;2023-12-04T05:25:32;-3.00;99.90
4759;DHT22;2393;50.560;12.636;2023-12-04T05:28:12;-2.90;99.90
4759;DHT22;2393;50.560;12.636;2023-12-04T05:30:40;-2.90;99.90
4759;DHT22;2393;50.560;12.636;2023-12-04T05:33:10;-2.80;99.90
4759;DHT22;2393;50.560;12.636;2023-12-04T05:35:38;-2.70;99.90
4759;DHT22;2393;50.560;12.636;2023-12-04T05:38:06;-2.70;99.90
4759;DHT22;2393;50.560;12.636;2023-12-04T05:40:35;-2.60;99.90
4759;DHT22;2393;50.560;12.636;2023-12-04T05:43:03;-2.50;99.90
4759;DHT22;2393;50.560;12.636;2023-12-04T05:45:33;-2.50;99.90
4759;DHT22;2393;50.560;12.636;2023-12-04T05:48:02;-2.40;99.90
4759;DHT22;2393;50.560;12.636;2023-12-04T05:50:30;-2.40;99.90
4759;DHT22;2393;50.560;12.636;2023-12-04T05:52:58;-2.40;99.90
4759;DHT22;2393;50.560;12.636;2023-12-04T05:55:29;-2.40;99.90
4759;DHT22;2393;50.560;12.636;2023-12-04T05:57:58;-2.40;99.90
4759;DHT22;2393;50.560;12.636;2023-12-04T06:00:26;-2.30;99.90
4759;DHT22;2393;50.560;12.636;2023-12-04T06:02:57;-2.30;99.90
4759;DHT22;2393;50.560;12.636;2023-12-04T06:05:26;-2.20;99.90
4759;DHT22;2393;50.560;12.636;2023-12-04T06:07:56;-2.20;99.90
4759;DHT22;2393;50.560;12.636;2023-12-04T06:10:25;-2.30;99.90
4759;DHT22;2393;50.560;12.636;2023-12-04T06:12:53;-2.20;99.90
4759;DHT22;2393;50.560;12.636;2023-12-04T06:15:22;-2.20;99.90
4759;DHT22;2393;50.560;12.636;2023-12-04T06:17:50;-2.30;99.90
4759;DHT22;2393;50.560;12.636;2023-12-04T06:20:20;-2.20;99.90
4759;DHT22;2393;50.560;12.636;2023-12-04T06:22:48;-2.20;99.90
4759;DHT22;2393;50.560;12.636;2023-12-04T06:25:17;-2.20;99.90
4759;DHT22;2393;50.560;12.636;2023-12-04T06:27:46;-2.10;99.90
4759;DHT22;2393;50.560;12.636;2023-12-04T06:30:16;-2.10;99.90
4759;DHT22;2393;50.560;12.636;2023-12-04T06:32:45;-2.10;99.90
4759;DHT22;2393;50.560;12.636;2023-12-04T06:35:15;-2.10;99.90
4759;DHT22;2393;50.560;12.636;2023-12-04T06:37:48;-2.20;99.90
4759;DHT22;2393;50.560;12.636;2023-12-04T06:40:18;-2.20;99.90
4759;DHT22;2393;50.560;12.636;2023-12-04T06:42:47;-2.20;99.90
4759;DHT22;2393;50.560;12.636;2023-12-04T06:45:17;-2.20;99.90
4759;DHT22;2393;50.560;12.636;2023-12-04T06:47:46;-2.20;99.90
4759;DHT22;2393;50.560;12.636;2023-12-04T06:50:44;-2.20;99.90
4759;DHT22;2393;50.560;12.636;2023-12-04T06:53:14;-2.30;99.90
4759;DHT22;2393;50.560;12.636;2023-12-04T06:55:42;-2.20;99.90
4759;DHT22;2393;50.560;12.636;2023-12-04T06:58:11;-2.20;99.90
4759;DHT22;2393;50.560;12.636;2023-12-04T07:00:39;-2.20;99.90
4759;DHT22;2393;50.560;12.636;2023-12-04T07:03:07;-2.10;99.90
4759;DHT22;2393;50.560;12.636;2023-12-04T07:05:35;-2.10;99.90
4759;DHT22;2393;50.560;12.636;2023-12-04T07:08:06;-2.10;99.90
4759;DHT22;2393;50.560;12.636;2023-12-04T07:10:36;-2.10;99.90
4759;DHT22;2393;50.560;12.636;2023-12-04T07:13:04;-2.10;99.90
4759;DHT22;2393;50.560;12.636;2023-12-04T07:15:32;-2.00;99.90
4759;DHT22;2393;50.560;12.636;2023-12-04T07:18:00;-2.00;99.90
4759;DHT22;2393;50.560;12.636;2023-12-04T07:20:29;-1.90;99.90
4759;DHT22;2393;50.560;12.636;2023-12-04T07:22:57;-1.90;99.90
4759;DHT22;2393;50.560;12.636;2023-12-04T07:25:26;-1.90;99.90
4759;DHT22;2393;50.560;12.636;2023-12-04T07:27:56;-1.80;99.90
4759;DHT22;2393;50.560;12.636;2023-12-04T07:30:25;-1.80;99.90
4759;DHT22;2393;50.560;12.636;2023-12-04T07:32:53;-1.80;99.90
4759;DHT22;2393;50.560;12.636;2023-12-04T07:35:21;-1.80;99.90
4759;DHT22;2393;50.560;12.636;2023-12-04T07:37:50;-1.80;99.90
4759;DHT22;2393;50.560;12.636;2023-12-04T07:40:19;-1.80;99.90
4759;DHT22;2393;50.560;12.636;2023-12-04T07:42:49;-1.80;99.90
4759;DHT22;2393;50.560;12.636;2023-12-04T07:45:19;-1.80;99.90
4759;DHT22;2393;50.560;12.636;2023-12-04T07:47:48;-1.80;99.90
4759;DHT22;2393;50.560;12.636;2023-12-04T07:50:17;-1.80;99.90
4759;DHT22;2393;50.560;12.636;2023-12-04T07:52:45;-1.80;99.90
4759;DHT22;2393;50.560;12.636;2023-12-04T07:55:13;-1.80;99.90
4759;DHT22;2393;50.560;12.636;2023-12-04T07:57:42;-1.70;99.90
4759;DHT22;2393;50.560;12.636;2023-12-04T08:00:11;-1.70;99.90
4759;DHT22;2393;50.560;12.636;2023-12-04T08:02:40;-1.70;99.90
4759;DHT22;2393;50.560;12.636;2023-12-04T08:05:12;-1.70;99.90
4759;DHT22;2393;50.560;12.636;2023-12-04T08:07:40;-1.70;99.90
4759;DHT22;2393;50.560;12.636;2023-12-04T08:10:09;-1.60;99.90
4759;DHT22;2393;50.560;12.636;2023-12-04T08:12:37;-1.70;99.90
4759;DHT22;2393;50.560;12.636;2023-12-04T08:15:07;-1.60;99.90
4759;DHT22;2393;50.560;12.636;2023-12-04T08:17:35;-1.60;99.90
4759;DHT22;2393;50.560;12.636;2023-12-04T08:20:07;-1.50;99.90
4759;DHT22;2393;50.560;12.636;2023-12-04T08:22:48;-1.40;99.90
4759;DHT22;2393;50.560;12.636;2023-12-04T08:25:16;-1.50;99.90
4759;DHT22;2393;50.560;12.636;2023-12-04T08:27:44;-1.40;99.90
4759;DHT22;2393;50.560;12.636;2023-12-04T08:30:14;-1.40;99.90
4759;DHT22;2393;50.560;12.636;2023-12-04T08:32:42;-1.30;99.90
4759;DHT22;2393;50.560;12.636;2023-12-04T08:35:12;-1.30;99.90
4759;DHT22;2393;50.560;12.636;2023-12-04T08:37:41;-1.20;99.90
4759;DHT22;2393;50.560;12.636;2023-12-04T08:40:10;-1.20;99.90
4759;DHT22;2393;50.560;12.636;2023-12-04T08:42:38;-1.10;99.90
4759;DHT22;2393;50.560;12.636;2023-12-04T08:45:09;-1.00;99.90
4759;DHT22;2393;50.560;12.636;2023-12-04T08:47:38;-1.00;99.90
4759;DHT22;2393;50.560;12.636;2023-12-04T08:50:07;-0.90;99.90
4759;DHT22;2393;50.560;12.636;2023-12-04T08:52:37;-0.80;99.90
4759;DHT22;2393;50.560;12.636;2023-12-04T08:55:09;-0.80;99.90
4759;DHT22;2393;50.560;12.636;2023-12-04T08:57:37;-0.80;99.90
4759;DHT22;2393;50.560;12.636;2023-12-04T09:00:07;-0.70;99.90
4759;DHT22;2393;50.560;12.636;2023-12-04T09:02:36;-0.60;99.90
4759;DHT22;2393;50.560;12.636;2023-12-04T09:05:15;-0.60;99.90
4759;DHT22;2393;50.560;12.636;2023-12-04T09:07:45;-0.60;99.90
4759;DHT22;2393;50.560;12.636;2023-12-04T09:10:16;-0.50;99.90
4759;DHT22;2393;50.560;12.636;2023-12-04T09:13:04;-0.40;99.90
4759;DHT22;2393;50.560;12.636;2023-12-04T09:15:33;-0.40;99.90
4759;DHT22;2393;50.560;12.636;2023-12-04T09:18:01;-0.50;99.90
4759;DHT22;2393;50.560;12.636;2023-12-04T09:20:29;-0.40;99.90
4759;DHT22;2393;50.560;12.636;2023-12-04T09:23:01;-0.40;99.90
4759;DHT22;2393;50.560;12.636;2023-12-04T09:25:35;-0.30;99.90
4759;DHT22;2393;50.560;12.636;2023-12-04T09:28:04;-0.20;99.90
4759;DHT22;2393;50.560;12.636;2023-12-04T09:30:33;-0.10;99.90
4759;DHT22;2393;50.560;12.636;2023-12-04T09:33:01;0.00;99.90
4759;DHT22;2393;50.560;12.636;2023-12-04T09:35:29;0.10;99.90
4759;DHT22;2393;50.560;12.636;2023-12-04T09:37:59;0.30;99.90
4759;DHT22;2393;50.560;12.636;2023-12-04T09:40:28;0.30;99.90
4759;DHT22;2393;50.560;12.636;2023-12-04T09:42:56;0.20;99.90
4759;DHT22;2393;50.560;12.636;2023-12-04T09:45:25;0.50;99.90
4759;DHT22;2393;50.560;12.636;2023-12-04T09:47:55;0.60;99.90
4759;DHT22;2393;50.560;12.636;2023-12-04T09:50:24;0.60;99.90
4759;DHT22;2393;50.560;12.636;2023-12-04T09:52:52;0.60;99.90
4759;DHT22;2393;50.560;12.636;2023-12-04T09:55:22;0.70;99.90
4759;DHT22;2393;50.560;12.636;2023-12-04T09:57:50;0.70;99.90
4759;DHT22;2393;50.560;12.636;2023-12-04T10:00:18;0.50;99.90
4759;DHT22;2393;50.560;12.636;2023-12-04T10:02:49;0.30;99.90
4759;DHT22;2393;50.560;12.636;2023-12-04T10:05:18;0.30;99.90
4759;DHT22;2393;50.560;12.636;2023-12-04T10:07:48;0.10;99.90
4759;DHT22;2393;50.560;12.636;2023-12-04T10:10:16;0.10;99.90
4759;DHT22;2393;50.560;12.636;2023-12-04T10:12:46;0.00;99.90
4759;DHT22;2393;50.560;12.636;2023-12-04T10:15:14;0.00;99.90
4759;DHT22;2393;50.560;12.636;2023-12-04T10:17:44;-0.10;99.90
4759;DHT22;2393;50.560;12.636;2023-12-04T10:20:14;-0.10;99.90
4759;DHT22;2393;50.560;12.636;2023-12-04T10:22:55;0.00;99.90
4759;DHT22;2393;50.560;12.636;2023-12-04T10:25:24;0.10;99.90
4759;DHT22;2393;50.560;12.636;2023-12-04T10:27:55;0.10;99.90
4759;DHT22;2393;50.560;12.636;2023-12-04T10:30:34;0.20;99.90
4759;DHT22;2393;50.560;12.636;2023-12-04T10:33:04;0.20;99.90
4759;DHT22;2393;50.560;12.636;2023-12-04T10:35:34;0.20;99.90
4759;DHT22;2393;50.560;12.636;2023-12-04T10:38:04;0.10;99.90
4759;DHT22;2393;50.560;12.636;2023-12-04T10:40:33;0.10;99.90
4759;DHT22;2393;50.560;12.636;2023-12-04T10:43:15;0.20;99.90
4759;DHT22;2393;50.560;12.636;2023-12-04T10:45:44;0.20;99.90
4759;DHT22;2393;50.560;12.636;2023-12-04T10:48:15;0.10;99.90
4759;DHT22;2393;50.560;12.636;2023-12-04T10:50:44;0.30;99.90
4759;DHT22;2393;50.560;12.636;2023-12-04T10:53:14;0.30;99.90
4759;DHT22;2393;50.560;12.636;2023-12-04T10:55:43;0.30;99.90
4759;DHT22;2393;50.560;12.636;2023-12-04T10:58:15;0.40;99.90
4759;DHT22;2393;50.560;12.636;2023-12-04T11:00:45;0.50;99.90
4759;DHT22;2393;50.560;12.636;2023-12-04T11:03:18;0.60;99.90
4759;DHT22;2393;50.560;12.636;2023-12-04T11:05:55;0.80;99.90
4759;DHT22;2393;50.560;12.636;2023-12-04T11:08:27;0.90;99.90
4759;DHT22;2393;50.560;12.636;2023-12-04T11:10:59;1.10;99.90
4759;DHT22;2393;50.560;12.636;2023-12-04T11:13:32;1.40;99.90
4759;DHT22;2393;50.560;12.636;2023-12-04T11:16:02;1.70;99.90
4759;DHT22;2393;50.560;12.636;2023-12-04T11:18:36;1.90;99.90
4759;DHT22;2393;50.560;12.636;2023-12-04T11:21:08;2.20;99.90
4759;DHT22;2393;50.560;12.636;2023-12-04T11:23:37;2.20;99.90
4759;DHT22;2393;50.560;12.636;2023-12-04T11:26:06;2.20;99.90
4759;DHT22;2393;50.560;12.636;2023-12-04T11:28:37;2.20;99.90
4759;DHT22;2393;50.560;12.636;2023-12-04T11:31:06;2.40;99.90
4759;DHT22;2393;50.560;12.636;2023-12-04T11:33:35;2.70;99.90
4759;DHT22;2393;50.560;12.636;2023-12-04T11:36:09;3.00;99.90
4759;DHT22;2393;50.560;12.636;2023-12-04T11:38:44;3.20;99.90
4759;DHT22;2393;50.560;12.636;2023-12-04T11:41:18;3.20;99.90
4759;DHT22;2393;50.560;12.636;2023-12-04T11:43:55;3.10;99.90
4759;DHT22;2393;50.560;12.636;2023-12-04T11:46:26;3.00;99.90
4759;DHT22;2393;50.560;12.636;2023-12-04T11:48:55;3.00;99.90
4759;DHT22;2393;50.560;12.636;2023-12-04T11:51:46;2.70;99.90
4759;DHT22;2393;50.560;12.636;2023-12-04T11:54:19;2.30;99.90
4759;DHT22;2393;50.560;12.636;2023-12-04T11:56:57;1.90;99.90
4759;DHT22;2393;50.560;12.636;2023-12-04T11:59:28;1.60;99.90
4759;DHT22;2393;50.560;12.636;2023-12-04T12:01:57;1.60;99.90
4759;DHT22;2393;50.560;12.636;2023-12-04T12:04:26;1.60;99.90
4759;DHT22;2393;50.560;12.636;2023-12-04T12:06:58;1.50;99.90
4759;DHT22;2393;50.560;12.636;2023-12-04T12:09:35;1.40;99.90
4759;DHT22;2393;50.560;12.636;2023-12-04T12:12:04;1.40;99.90
4759;DHT22;2393;50.560;12.636;2023-12-04T12:14:34;1.50;99.90
4759;DHT22;2393;50.560;12.636;2023-12-04T12:17:02;1.40;99.90
4759;DHT22;2393;50.560;12.636;2023-12-04T12:19:30;1.30;99.90
4759;DHT22;2393;50.560;12.636;2023-12-04T12:21:58;1.30;99.90
4759;DHT22;2393;50.560;12.636;2023-12-04T12:24:34;1.20;99.90
4759;DHT22;2393;50.560;12.636;2023-12-04T12:27:03;0.90;99.90
4759;DHT22;2393;50.560;12.636;2023-12-04T12:29:35;0.90;99.90
4759;DHT22;2393;50.560;12.636;2023-12-04T12:32:04;0.80;99.90
4759;DHT22;2393;50.560;12.636;2023-12-04T12:34:32;0.60;99.90
4759;DHT22;2393;50.560;12.636;2023-12-04T12:37:03;0.50;99.90
4759;DHT22;2393;50.560;12.636;2023-12-04T12:39:33;0.40;99.90
4759;DHT22;2393;50.560;12.636;2023-12-04T12:42:02;0.40;99.90
4759;DHT22;2393;50.560;12.636;2023-12-04T12:44:39;0.30;99.90
4759;DHT22;2393;50.560;12.636;2023-12-04T12:47:07;0.30;99.90
4759;DHT22;2393;50.560;12.636;2023-12-04T12:49:35;0.30;99.90
4759;DHT22;2393;50.560;12.636;2023-12-04T12:52:08;0.40;99.90
4759;DHT22;2393;50.560;12.636;2023-12-04T12:54:37;0.50;99.90
4759;DHT22;2393;50.560;12.636;2023-12-04T12:57:05;0.50;99.90
4759;DHT22;2393;50.560;12.636;2023-12-04T12:59:34;0.50;99.90
4759;DHT22;2393;50.560;12.636;2023-12-04T13:02:04;0.40;99.90
4759;DHT22;2393;50.560;12.636;2023-12-04T13:04:34;0.40;99.90
4759;DHT22;2393;50.560;12.636;2023-12-04T13:07:03;0.30;99.90
4759;DHT22;2393;50.560;12.636;2023-12-04T13:09:33;0.30;99.90
4759;DHT22;2393;50.560;12.636;2023-12-04T13:12:03;0.20;99.90
4759;DHT22;2393;50.560;12.636;2023-12-04T13:14:31;0.10;99.90
4759;DHT22;2393;50.560;12.636;2023-12-04T13:16:59;0.10;99.90
4759;DHT22;2393;50.560;12.636;2023-12-04T13:19:54;0.00;99.90
4759;DHT22;2393;50.560;12.636;2023-12-04T13:22:22;0.00;99.90
4759;DHT22;2393;50.560;12.636;2023-12-04T13:24:50;-0.10;99.90
4759;DHT22;2393;50.560;12.636;2023-12-04T13:27:19;-0.10;99.90
4759;DHT22;2393;50.560;12.636;2023-12-04T13:29:47;-0.10;99.90
4759;DHT22;2393;50.560;12.636;2023-12-04T13:32:16;0.00;99.90
4759;DHT22;2393;50.560;12.636;2023-12-04T13:34:46;0.00;99.90
4759;DHT22;2393;50.560;12.636;2023-12-04T13:37:15;0.00;99.90
4759;DHT22;2393;50.560;12.636;2023-12-04T13:39:44;0.00;99.90
4759;DHT22;2393;50.560;12.636;2023-12-04T13:42:16;0.00;99.90
4759;DHT22;2393;50.560;12.636;2023-12-04T13:45:02;-0.10;99.90
4759;DHT22;2393;50.560;12.636;2023-12-04T13:47:31;-0.10;99.90
4759;DHT22;2393;50.560;12.636;2023-12-04T13:50:01;-0.10;99.90
4759;DHT22;2393;50.560;12.636;2023-12-04T13:52:31;-0.10;99.90
4759;DHT22;2393;50.560;12.636;2023-12-04T13:55:01;-0.20;99.90
4759;DHT22;2393;50.560;12.636;2023-12-04T13:57:37;-0.10;99.90
4759;DHT22;2393;50.560;12.636;2023-12-04T14:00:21;-0.20;99.90
4759;DHT22;2393;50.560;12.636;2023-12-04T14:02:50;-0.30;99.90
4759;DHT22;2393;50.560;12.636;2023-12-04T14:05:20;-0.30;99.90
4759;DHT22;2393;50.560;12.636;2023-12-04T14:07:50;-0.30;99.90
4759;DHT22;2393;50.560;12.636;2023-12-04T14:10:19;-0.30;99.90
4759;DHT22;2393;50.560;12.636;2023-12-04T14:12:47;-0.20;99.90
4759;DHT22;2393;50.560;12.636;2023-12-04T14:15:15;-0.30;99.90
4759;DHT22;2393;50.560;12.636;2023-12-04T14:17:43;-0.30;99.90
4759;DHT22;2393;50.560;12.636;2023-12-04T14:20:13;-0.30;99.90
4759;DHT22;2393;50.560;12.636;2023-12-04T14:22:45;-0.30;99.90
4759;DHT22;2393;50.560;12.636;2023-12-04T14:25:16;-0.40;99.90
4759;DHT22;2393;50.560;12.636;2023-12-04T14:27:44;-0.30;99.90
4759;DHT22;2393;50.560;12.636;2023-12-04T14:30:12;-0.30;99.90
4759;DHT22;2393;50.560;12.636;2023-12-04T14:32:40;-0.30;99.90
4759;DHT22;2393;50.560;12.636;2023-12-04T14:35:14;-0.30;99.90
4759;DHT22;2393;50.560;12.636;2023-12-04T14:37:43;-0.30;99.90
4759;DHT22;2393;50.560;12.636;2023-12-04T14:40:12;-0.30;99.90
4759;DHT22;2393;50.560;12.636;2023-12-04T14:42:43;-0.30;99.90
4759;DHT22;2393;50.560;12.636;2023-12-04T14:45:12;-0.20;99.90
4759;DHT22;2393;50.560;12.636;2023-12-04T14:47:40;-0.20;99.90
4759;DHT22;2393;50.560;12.636;2023-12-04T14:50:08;-0.30;99.90
4759;DHT22;2393;50.560;12.636;2023-12-04T14:52:37;-0.40;99.90
4759;DHT22;2393;50.560;12.636;2023-12-04T14:55:14;-0.30;99.90
4759;DHT22;2393;50.560;12.636;2023-12-04T14:58:12;-0.40;99.90
4759;DHT22;2393;50.560;12.636;2023-12-04T15:01:06;-0.50;99.90
4759;DHT22;2393;50.560;12.636;2023-12-04T15:03:52;-0.60;99.90
4759;DHT22;2393;50.560;12.636;2023-12-04T15:06:56;-0.70;99.90
4759;DHT22;2393;50.560;12.636;2023-12-04T15:09:54;-0.80;99.90
4759;DHT22;2393;50.560;12.636;2023-12-04T15:12:50;-0.80;99.90
4759;DHT22;2393;50.560;12.636;2023-12-04T15:15:41;-0.90;99.90
4759;DHT22;2393;50.560;12.636;2023-12-04T15:18:29;-0.80;99.90
4759;DHT22;2393;50.560;12.636;2023-12-04T15:21:05;-0.90;99.90
4759;DHT22;2393;50.560;12.636;2023-12-04T15:23:33;-0.90;99.90
4759;DHT22;2393;50.560;12.636;2023-12-04T15:26:02;-0.90;99.90
4759;DHT22;2393;50.560;12.636;2023-12-04T15:28:29;-0.90;99.90
4759;DHT22;2393;50.560;12.636;2023-12-04T15:30:58;-0.90;99.90
4759;DHT22;2393;50.560;12.636;2023-12-04T15:33:27;-1.00;99.90
4759;DHT22;2393;50.560;12.636;2023-12-04T15:35:55;-1.00;99.90
4759;DHT22;2393;50.560;12.636;2023-12-04T15:38:22;-1.10;99.90
4759;DHT22;2393;50.560;12.636;2023-12-04T15:40:50;-1.10;99.90
4759;DHT22;2393;50.560;12.636;2023-12-04T15:43:18;-1.10;99.90
4759;DHT22;2393;50.560;12.636;2023-12-04T15:45:46;-1.20;99.90
4759;DHT22;2393;50.560;12.636;2023-12-04T15:48:15;-1.30;99.90
4759;DHT22;2393;50.560;12.636;2023-12-04T15:50:44;-1.20;99.90
4759;DHT22;2393;50.560;12.636;2023-12-04T15:53:11;-1.20;99.90
4759;DHT22;2393;50.560;12.636;2023-12-04T15:55:39;-1.30;99.90
4759;DHT22;2393;50.560;12.636;2023-12-04T15:58:08;-1.30;99.90
4759;DHT22;2393;50.560;12.636;2023-12-04T16:00:36;-1.40;99.90
4759;DHT22;2393;50.560;12.636;2023-12-04T16:03:05;-1.40;99.90
4759;DHT22;2393;50.560;12.636;2023-12-04T16:05:35;-1.40;99.90
4759;DHT22;2393;50.560;12.636;2023-12-04T16:08:03;-1.50;99.90
4759;DHT22;2393;50.560;12.636;2023-12-04T16:10:31;-1.60;99.90